createdAt,value
2019-03-05T00:00:59.486Z,34.83
2019-03-05T00:03:28.414Z,30.63
2019-03-05T00:05:57.277Z,31.27
2019-03-05T00:08:26.133Z,32.97
2019-03-05T00:10:54.969Z,36.70
2019-03-05T00:13:23.749Z,33.30
2019-03-05T00:15:52.999Z,36.87
2019-03-05T00:18:21.760Z,33.70
2019-03-05T00:20:50.531Z,39.30
2019-03-05T00:23:38.283Z,33.37
2019-03-05T00:26:07.127Z,33.40
2019-03-05T00:28:38.878Z,33.53
2019-03-05T00:31:10.633Z,33.77
2019-03-05T00:33:45.254Z,37.60
2019-03-05T00:36:16.935Z,39.60
2019-03-05T00:39:12.734Z,37.37
2019-03-05T00:41:49.958Z,40.77
2019-03-05T00:44:53.029Z,39.63
2019-03-05T00:47:45.525Z,50.27
2019-03-05T00:50:28.850Z,37.47
2019-03-05T00:53:03.364Z,39.87
2019-03-05T00:55:51.258Z,41.43
2019-03-05T00:58:32.108Z,45.70
2019-03-05T01:01:06.502Z,42.67
2019-03-05T01:03:59.266Z,65.60
2019-03-05T01:06:28.240Z,60.60
2019-03-05T01:08:57.820Z,48.03
2019-03-05T01:11:26.764Z,49.40
2019-03-05T01:13:55.523Z,41.10
2019-03-05T01:16:28.989Z,42.73
2019-03-05T01:18:57.751Z,37.50
2019-03-05T01:21:26.594Z,41.47
2019-03-05T01:23:55.361Z,43.50
2019-03-05T01:26:24.246Z,40.93
2019-03-05T01:28:53.078Z,48.67
2019-03-05T01:31:23.486Z,50.63
2019-03-05T01:36:42.984Z,48.10
2019-03-05T01:39:16.151Z,44.40
2019-03-05T01:41:44.925Z,43.30
2019-03-05T01:44:13.740Z,46.30
2019-03-05T01:46:42.579Z,40.07
2019-03-05T01:49:11.404Z,34.67
2019-03-05T01:51:40.240Z,36.40
2019-03-05T01:54:09.071Z,40.27
2019-03-05T01:56:37.901Z,37.47
2019-03-05T01:59:06.680Z,32.60
2019-03-05T02:01:35.463Z,31.27
2019-03-05T02:04:04.307Z,34.63
2019-03-05T02:06:33.139Z,43.43
2019-03-05T02:09:01.990Z,46.13
2019-03-05T02:11:30.926Z,57.87
2019-03-05T02:13:59.789Z,43.90
2019-03-05T02:16:28.624Z,41.60
2019-03-05T02:19:09.260Z,38.33
2019-03-05T02:21:38.096Z,34.03
2019-03-05T02:24:21.926Z,38.53
2019-03-05T02:27:18.768Z,37.40
2019-03-05T02:29:59.036Z,43.20
2019-03-05T02:32:39.720Z,44.53
2019-03-05T02:35:19.691Z,37.63
2019-03-05T02:38:05.711Z,35.47
2019-03-05T02:40:36.539Z,37.17
2019-03-05T02:43:28.826Z,40.00
2019-03-05T02:46:00.499Z,40.20
2019-03-05T02:48:46.872Z,33.40
2019-03-05T02:51:37.722Z,36.43
2019-03-05T02:54:18.356Z,33.20
2019-03-05T02:56:53.015Z,36.17
2019-03-05T02:59:21.853Z,38.57
2019-03-05T03:02:08.197Z,35.97
2019-03-05T03:04:41.562Z,34.97
2019-03-05T03:07:10.396Z,37.10
2019-03-05T03:09:42.148Z,32.90
2019-03-05T03:12:10.995Z,43.30
2019-03-05T03:14:39.838Z,37.23
2019-03-05T03:17:08.662Z,36.70
2019-03-05T03:19:37.435Z,35.20
2019-03-05T03:22:06.208Z,35.33
2019-03-05T03:24:34.970Z,34.33
2019-03-05T03:27:03.794Z,42.87
2019-03-05T03:29:32.570Z,36.30
2019-03-05T03:32:01.649Z,41.37
2019-03-05T03:34:30.577Z,36.63
2019-03-05T03:36:59.324Z,38.20
2019-03-05T03:39:28.157Z,40.37
2019-03-05T03:41:56.926Z,41.77
2019-03-05T03:44:25.695Z,38.30
2019-03-05T03:46:54.469Z,44.20
2019-03-05T03:49:23.233Z,47.77
2019-03-05T03:51:52.076Z,45.67
2019-03-05T03:54:20.844Z,47.83
2019-03-05T03:56:49.597Z,44.67
2019-03-05T03:59:18.439Z,47.10
2019-03-05T04:01:47.226Z,45.67
2019-03-05T04:04:15.993Z,48.40
2019-03-05T04:06:44.846Z,46.53
2019-03-05T04:09:13.637Z,50.53
2019-03-05T04:11:42.467Z,47.13
2019-03-05T04:14:11.316Z,52.63
2019-03-05T04:16:40.162Z,55.03
2019-03-05T04:19:10.583Z,67.57
2019-03-05T04:21:39.339Z,67.20
2019-03-05T04:24:08.189Z,59.47
2019-03-05T04:26:37.050Z,50.13
2019-03-05T04:29:05.827Z,55.13
2019-03-05T04:31:34.614Z,52.47
2019-03-05T04:34:03.375Z,63.87
2019-03-05T04:36:32.134Z,59.13
2019-03-05T04:39:00.975Z,50.30
2019-03-05T04:41:29.735Z,41.67
2019-03-05T04:43:58.585Z,54.27
2019-03-05T04:46:28.997Z,34.63
2019-03-05T04:49:02.369Z,41.63
2019-03-05T04:51:32.783Z,38.10
2019-03-05T04:54:01.607Z,40.67
2019-03-05T04:56:30.456Z,51.13
2019-03-05T04:58:59.558Z,64.70
2019-03-05T05:01:28.413Z,78.80
2019-03-05T05:03:57.341Z,51.57
2019-03-05T05:06:26.187Z,61.70
2019-03-05T05:08:55.032Z,84.77
2019-03-05T05:11:23.837Z,103.37
2019-03-05T05:13:52.731Z,86.73
2019-03-05T05:16:21.571Z,101.73
2019-03-05T05:18:50.418Z,110.33
2019-03-05T05:21:19.264Z,202.70
2019-03-05T05:23:48.223Z,104.37
2019-03-05T05:26:17.839Z,121.03
2019-03-05T05:28:46.791Z,142.87
2019-03-05T05:31:15.630Z,133.10
2019-03-05T05:33:44.471Z,73.83
2019-03-05T05:36:13.489Z,68.60
2019-03-05T05:38:42.404Z,314.67
2019-03-05T05:41:11.281Z,222.17
2019-03-05T05:43:40.101Z,218.80
2019-03-05T05:46:08.943Z,121.33
2019-03-05T05:48:37.731Z,94.97
2019-03-05T05:51:06.559Z,82.77
2019-03-05T05:53:35.354Z,70.47
2019-03-05T05:56:04.179Z,70.90
2019-03-05T05:58:33.025Z,84.93
2019-03-05T06:01:03.422Z,58.83
2019-03-05T06:03:32.286Z,98.10
2019-03-05T06:06:01.045Z,103.23
2019-03-05T06:08:29.824Z,79.67
2019-03-05T06:10:58.663Z,66.00
2019-03-05T06:13:27.442Z,110.93
2019-03-05T06:15:56.215Z,60.50
2019-03-05T06:18:25.083Z,68.67
2019-03-05T06:20:53.904Z,61.17
2019-03-05T06:23:22.724Z,50.20
2019-03-05T06:25:51.502Z,77.33
2019-03-05T06:28:20.276Z,58.53
2019-03-05T06:30:49.108Z,58.70
2019-03-05T06:33:17.866Z,60.80
2019-03-05T06:35:46.727Z,66.53
2019-03-05T06:38:15.550Z,66.07
2019-03-05T06:40:44.388Z,58.10
2019-03-05T06:43:13.810Z,81.95
2019-03-05T06:45:42.650Z,78.03
2019-03-05T06:48:12.074Z,93.75
2019-03-05T06:50:40.866Z,93.37
2019-03-05T06:53:10.217Z,81.25
2019-03-05T06:55:39.570Z,78.00
2019-03-05T06:58:11.593Z,67.75
2019-03-05T07:00:41.126Z,55.48
2019-03-05T07:03:10.761Z,55.52
2019-03-05T07:06:15.780Z,52.65
2019-03-05T07:08:51.074Z,52.78
2019-03-05T07:11:23.426Z,60.25
2019-03-05T07:13:56.027Z,49.18
2019-03-05T07:16:39.904Z,53.95
2019-03-05T07:19:09.266Z,49.70
2019-03-05T07:22:02.670Z,49.93
2019-03-05T07:24:43.910Z,48.48
2019-03-05T07:27:14.777Z,49.08
2019-03-05T07:29:44.141Z,57.25
2019-03-05T07:32:13.653Z,53.10
2019-03-05T07:34:44.634Z,58.20
2019-03-05T07:37:14.212Z,106.25
2019-03-05T07:39:43.707Z,52.98
2019-03-05T07:42:13.294Z,50.98
2019-03-05T07:44:42.653Z,56.28
2019-03-05T07:47:12.174Z,48.20
2019-03-05T07:49:44.141Z,54.53
2019-03-05T07:52:12.707Z,55.48
2019-03-05T07:54:42.128Z,42.90
2019-03-05T07:57:11.494Z,45.35
2019-03-05T07:59:40.859Z,40.05
2019-03-05T08:02:10.308Z,42.00
2019-03-05T08:04:39.684Z,38.65
2019-03-05T08:07:09.315Z,37.78
2019-03-05T08:09:39.059Z,36.00
2019-03-05T08:12:29.539Z,40.78
2019-03-05T08:15:13.800Z,38.50
2019-03-05T08:17:43.168Z,45.75
2019-03-05T08:20:13.289Z,45.75
2019-03-05T08:22:42.676Z,52.60
2019-03-05T08:25:12.895Z,51.05
2019-03-05T08:27:42.336Z,45.98
2019-03-05T08:30:17.165Z,48.78
2019-03-05T08:35:27.981Z,52.78
2019-03-05T08:37:57.406Z,45.98
2019-03-05T08:40:26.784Z,86.50
2019-03-05T08:42:56.208Z,41.75
2019-03-05T08:45:29.581Z,49.75
2019-03-05T08:47:56.733Z,43.10
2019-03-05T08:50:26.158Z,44.08
2019-03-05T08:52:55.571Z,49.83
2019-03-05T08:58:05.673Z,36.17
2019-03-05T09:00:35.108Z,33.40
2019-03-05T09:03:04.482Z,36.95
2019-03-05T09:05:33.914Z,34.43
2019-03-05T09:08:03.342Z,34.27
2019-03-05T09:10:32.870Z,37.53
2019-03-05T09:13:02.331Z,31.05
2019-03-05T09:15:31.696Z,34.05
2019-03-05T09:18:01.145Z,36.10
2019-03-05T09:20:30.584Z,33.13
2019-03-05T09:23:00.010Z,33.42
2019-03-05T09:25:29.379Z,33.63
2019-03-05T09:27:58.811Z,35.23
2019-03-05T09:30:28.356Z,32.15
2019-03-05T09:32:57.717Z,37.35
2019-03-05T09:35:27.089Z,36.42
2019-03-05T09:37:56.534Z,39.78
2019-03-05T09:40:33.047Z,36.20
2019-03-05T09:43:02.397Z,38.35
2019-03-05T09:45:31.774Z,34.85
2019-03-05T09:48:01.142Z,46.23
2019-03-05T09:50:32.193Z,33.38
2019-03-05T09:53:02.219Z,35.80
2019-03-05T09:55:34.437Z,35.85
2019-03-05T09:58:08.367Z,32.70
2019-03-05T10:00:36.093Z,39.50
2019-03-05T10:03:06.025Z,31.52
2019-03-05T10:05:35.480Z,34.83
2019-03-05T10:08:05.519Z,33.05
2019-03-05T10:10:34.895Z,30.77
2019-03-05T10:13:04.702Z,39.67
2019-03-05T10:15:34.072Z,32.60
2019-03-05T10:18:12.086Z,32.60
2019-03-05T10:20:36.075Z,35.17
2019-03-05T10:23:05.863Z,37.03
2019-03-05T10:25:35.284Z,51.48
2019-03-05T10:28:05.026Z,26.62
2019-03-05T10:30:43.248Z,22.10
2019-03-05T10:33:13.185Z,26.80
2019-03-05T10:35:42.624Z,24.50
2019-03-05T10:38:12.874Z,38.20
2019-03-05T10:40:44.870Z,32.93
2019-03-05T10:43:16.316Z,34.10
2019-03-05T10:45:49.335Z,41.58
2019-03-05T10:48:23.958Z,36.45
2019-03-05T10:50:53.485Z,29.67
2019-03-05T10:53:22.929Z,23.00
2019-03-05T10:55:52.507Z,29.40
2019-03-05T10:58:32.758Z,33.48
2019-03-05T11:00:55.484Z,34.90
2019-03-05T11:03:27.375Z,36.60
2019-03-05T11:05:56.728Z,32.85
2019-03-05T11:08:27.171Z,24.63
2019-03-05T11:10:57.016Z,31.15
2019-03-05T11:13:26.081Z,30.93
2019-03-05T11:15:57.730Z,20.85
2019-03-05T11:18:29.817Z,23.40
2019-03-05T11:20:58.471Z,28.00
2019-03-05T11:23:27.847Z,21.02
2019-03-05T11:25:57.285Z,18.82
2019-03-05T11:28:26.721Z,15.23
2019-03-05T11:30:56.164Z,18.20
2019-03-05T11:33:25.616Z,18.05
2019-03-05T11:35:54.990Z,15.43
2019-03-05T11:38:24.375Z,17.23
2019-03-05T11:40:53.729Z,15.75
2019-03-05T11:43:23.174Z,17.87
2019-03-05T11:45:52.551Z,19.70
2019-03-05T11:48:21.960Z,16.10
2019-03-05T11:50:51.699Z,13.43
2019-03-05T11:53:20.905Z,13.17
2019-03-05T11:55:50.260Z,19.00
2019-03-05T11:58:19.314Z,14.33
2019-03-05T12:00:59.032Z,15.93
2019-03-05T12:03:28.467Z,12.35
2019-03-05T12:05:57.831Z,12.45
2019-03-05T12:08:27.263Z,10.82
2019-03-05T12:10:56.313Z,14.10
2019-03-05T12:13:25.390Z,19.07
2019-03-05T12:15:54.823Z,14.13
2019-03-05T12:18:25.440Z,10.40
2019-03-05T12:20:54.943Z,13.70
2019-03-05T12:23:24.298Z,10.68
2019-03-05T12:25:53.662Z,11.50
2019-03-05T12:28:23.009Z,31.65
2019-03-05T12:30:52.376Z,12.18
2019-03-05T12:33:21.789Z,15.05
2019-03-05T12:35:51.135Z,18.73
2019-03-05T12:38:20.190Z,20.70
2019-03-05T12:40:49.561Z,13.72
2019-03-05T12:43:18.924Z,10.05
2019-03-05T12:45:48.295Z,10.53
2019-03-05T12:48:17.433Z,10.13
2019-03-05T12:50:46.504Z,17.37
2019-03-05T12:53:16.130Z,10.63
2019-03-05T12:55:45.326Z,19.40
2019-03-05T12:58:14.392Z,12.23
2019-03-05T13:00:43.555Z,60.97
2019-03-05T13:03:12.925Z,10.05
2019-03-05T13:05:42.269Z,7.87
2019-03-05T13:08:11.640Z,5.92
2019-03-05T13:10:41.051Z,7.45
2019-03-05T13:13:13.850Z,7.72
2019-03-05T13:15:42.391Z,7.78
2019-03-05T13:18:14.198Z,7.42
2019-03-05T13:20:42.901Z,10.90
2019-03-05T13:23:12.255Z,9.38
2019-03-05T13:25:41.614Z,9.45
2019-03-05T13:28:11.044Z,9.15
2019-03-05T13:30:40.589Z,11.03
2019-03-05T13:33:09.713Z,14.97
2019-03-05T13:35:39.123Z,7.78
2019-03-05T13:38:12.549Z,12.37
2019-03-05T13:40:42.000Z,23.25
2019-03-05T13:43:11.361Z,10.25
2019-03-05T13:45:42.842Z,13.18
2019-03-05T13:48:32.215Z,6.65
2019-03-05T13:51:10.046Z,10.65
2019-03-05T13:54:01.272Z,9.13
2019-03-05T13:56:54.869Z,17.52
2019-03-05T13:59:36.991Z,27.93
2019-03-05T14:02:08.030Z,12.00
2019-03-05T14:04:49.165Z,12.85
2019-03-05T14:07:27.306Z,8.98
2019-03-05T14:09:56.672Z,12.47
2019-03-05T14:12:26.088Z,9.33
2019-03-05T14:14:57.715Z,17.55
2019-03-05T14:17:26.675Z,13.10
2019-03-05T14:19:56.013Z,16.17
2019-03-05T14:22:25.377Z,14.98
2019-03-05T14:25:02.087Z,15.83
2019-03-05T14:27:25.809Z,12.80
2019-03-05T14:29:55.208Z,22.48
2019-03-05T14:32:24.741Z,12.18
2019-03-05T14:35:00.364Z,13.35
2019-03-05T14:37:31.015Z,12.23
2019-03-05T14:40:22.214Z,9.58
2019-03-05T14:42:31.797Z,15.45
2019-03-05T14:45:01.261Z,9.63
2019-03-05T14:47:30.701Z,10.48
2019-03-05T14:50:00.217Z,10.60
2019-03-05T14:52:29.991Z,13.22
2019-03-05T14:54:59.433Z,10.95
2019-03-05T14:57:28.867Z,10.70
2019-03-05T14:59:58.262Z,10.15
2019-03-05T15:02:27.701Z,15.20
2019-03-05T15:04:57.164Z,13.75
2019-03-05T15:07:26.589Z,10.95
2019-03-05T15:09:56.001Z,13.68
2019-03-05T15:12:25.348Z,30.02
2019-03-05T15:14:54.717Z,30.30
2019-03-05T15:17:24.223Z,18.50
2019-03-05T15:19:53.610Z,32.88
2019-03-05T15:22:22.970Z,32.03
2019-03-05T15:24:52.406Z,21.85
2019-03-05T15:27:21.799Z,17.45
2019-03-05T15:29:51.203Z,34.00
2019-03-05T15:32:20.624Z,27.35
2019-03-05T15:34:50.053Z,34.67
2019-03-05T15:37:19.471Z,42.85
2019-03-05T15:39:48.952Z,48.17
2019-03-05T15:42:18.281Z,60.12
2019-03-05T15:44:47.745Z,86.00
2019-03-05T15:47:17.212Z,92.57
2019-03-05T15:49:46.685Z,30.97
2019-03-05T15:52:16.036Z,23.50
2019-03-05T15:54:45.403Z,41.37
2019-03-05T15:57:14.784Z,128.45
2019-03-05T15:59:44.166Z,91.82
2019-03-05T16:02:13.742Z,50.92
2019-03-05T16:04:43.842Z,55.65
2019-03-05T16:07:13.429Z,56.48
2019-03-05T16:09:43.951Z,53.42
2019-03-05T16:12:13.408Z,50.28
2019-03-05T16:14:42.825Z,36.20
2019-03-05T16:17:12.179Z,34.23
2019-03-05T16:19:41.537Z,36.05
2019-03-05T16:22:14.268Z,36.33
2019-03-05T16:24:42.046Z,46.28
2019-03-05T16:27:11.738Z,19.10
2019-03-05T16:29:41.164Z,30.48
2019-03-05T16:32:23.060Z,91.92
2019-03-05T16:34:53.859Z,58.80
2019-03-05T16:37:24.947Z,36.55
2019-03-05T16:40:05.360Z,33.63
2019-03-05T16:42:43.749Z,51.25
2019-03-05T16:45:23.587Z,32.67
2019-03-05T16:48:15.614Z,28.38
2019-03-05T16:51:01.742Z,29.72
2019-03-05T16:53:48.778Z,43.13
2019-03-05T16:56:22.782Z,56.55
2019-03-05T16:59:09.933Z,48.60
2019-03-05T17:01:40.964Z,62.05
2019-03-05T17:04:27.894Z,43.20
2019-03-05T17:07:15.310Z,44.67
2019-03-05T17:09:48.967Z,68.03
2019-03-05T17:12:18.410Z,34.23
2019-03-05T17:14:47.849Z,30.35
2019-03-05T17:17:17.333Z,27.98
2019-03-05T17:19:46.892Z,22.13
2019-03-05T17:22:16.312Z,30.02
2019-03-05T17:24:45.686Z,30.40
2019-03-05T17:27:15.626Z,28.15
2019-03-05T17:29:45.077Z,27.22
2019-03-05T17:32:15.230Z,35.43
2019-03-05T17:34:44.588Z,29.75
2019-03-05T17:37:13.995Z,46.05
2019-03-05T17:39:43.445Z,46.90
2019-03-05T17:42:12.883Z,46.18
2019-03-05T17:44:42.283Z,33.33
2019-03-05T17:47:11.707Z,35.15
2019-03-05T17:49:41.160Z,27.22
2019-03-05T17:52:10.635Z,31.00
2019-03-05T17:54:40.075Z,34.10
2019-03-05T17:57:09.497Z,34.30
2019-03-05T17:59:38.919Z,30.48
2019-03-05T18:02:08.356Z,38.83
2019-03-05T18:04:37.809Z,34.55
2019-03-05T18:07:07.269Z,29.07
2019-03-05T18:09:36.714Z,47.62
2019-03-05T18:12:06.139Z,33.70
2019-03-05T18:14:35.529Z,34.63
2019-03-05T18:17:05.599Z,42.98
2019-03-05T18:19:35.063Z,37.25
2019-03-05T18:22:04.477Z,71.05
2019-03-05T18:24:33.929Z,27.85
2019-03-05T18:27:03.284Z,26.00
2019-03-05T18:29:33.014Z,22.82
2019-03-05T18:32:02.401Z,34.53
2019-03-05T18:34:31.799Z,40.83
2019-03-05T18:37:01.264Z,38.70
2019-03-05T18:39:30.635Z,26.25
2019-03-05T18:42:00.357Z,29.02
2019-03-05T18:44:29.866Z,23.90
2019-03-05T18:46:59.380Z,28.70
2019-03-05T18:49:28.964Z,25.00
2019-03-05T18:51:58.413Z,22.90
2019-03-05T18:54:27.685Z,22.73
2019-03-05T18:56:57.146Z,29.75
2019-03-05T18:59:26.583Z,29.72
2019-03-05T19:01:57.554Z,22.37
2019-03-05T19:04:27.006Z,25.45
2019-03-05T19:06:56.379Z,34.48
2019-03-05T19:09:25.816Z,31.07
2019-03-05T19:11:55.294Z,36.77
2019-03-05T19:14:24.728Z,31.15
2019-03-05T19:16:54.503Z,19.30
2019-03-05T19:19:25.706Z,24.60
2019-03-05T19:21:55.197Z,23.90
2019-03-05T19:24:24.598Z,26.97
2019-03-05T19:26:54.024Z,31.95
2019-03-05T19:29:23.452Z,46.48
2019-03-05T19:31:52.828Z,27.85
2019-03-05T19:34:22.279Z,25.15
2019-03-05T19:36:51.724Z,22.15
2019-03-05T19:39:21.093Z,18.52
2019-03-05T19:41:56.144Z,20.30
2019-03-05T19:44:21.742Z,17.12
2019-03-05T19:46:51.183Z,22.60
2019-03-05T19:49:20.636Z,31.02
2019-03-05T19:51:50.156Z,22.35
2019-03-05T19:54:19.626Z,24.25
2019-03-05T19:56:49.088Z,24.82
2019-03-05T19:59:18.507Z,28.35
2019-03-05T20:01:47.951Z,29.18
2019-03-05T20:04:17.488Z,27.50
2019-03-05T20:06:46.926Z,26.93
2019-03-05T20:09:18.674Z,23.35
2019-03-05T20:11:48.127Z,24.18
2019-03-05T20:14:17.590Z,22.65
2019-03-05T20:16:47.059Z,23.67
2019-03-05T20:19:16.503Z,23.15
2019-03-05T20:21:45.988Z,26.15
2019-03-05T20:24:15.439Z,36.17
2019-03-05T20:26:45.167Z,32.23
2019-03-05T20:29:14.722Z,46.00
2019-03-05T20:31:44.087Z,43.38
2019-03-05T20:34:13.554Z,42.48
2019-03-05T20:36:42.969Z,43.45
2019-03-05T20:39:12.690Z,39.58
2019-03-05T20:41:42.063Z,68.02
2019-03-05T20:44:11.502Z,46.88
2019-03-05T20:46:40.942Z,44.75
2019-03-05T20:49:10.326Z,34.90
2019-03-05T20:51:39.984Z,34.45
2019-03-05T20:54:09.429Z,28.23
2019-03-05T20:56:38.890Z,37.42
2019-03-05T20:59:08.336Z,31.55
2019-03-05T21:01:37.771Z,32.80
2019-03-05T21:04:07.387Z,34.48
2019-03-05T21:06:36.837Z,33.88
2019-03-05T21:09:09.174Z,35.68
2019-03-05T21:11:38.632Z,37.35
2019-03-05T21:14:08.028Z,33.88
2019-03-05T21:16:37.393Z,35.17
2019-03-05T21:19:06.959Z,34.35
2019-03-05T21:21:36.399Z,20.70
2019-03-05T21:24:06.012Z,20.40
2019-03-05T21:26:35.425Z,38.20
2019-03-05T21:29:04.870Z,24.15
2019-03-05T21:31:34.250Z,19.87
2019-03-05T21:34:03.666Z,33.20
2019-03-05T21:36:33.040Z,31.73
2019-03-05T21:39:02.752Z,57.23
2019-03-05T21:41:32.199Z,27.17
2019-03-05T21:44:01.555Z,25.25
2019-03-05T21:46:31.002Z,29.80
2019-03-05T21:49:00.425Z,26.23
2019-03-05T21:51:29.811Z,23.30
2019-03-05T21:53:59.171Z,27.32
2019-03-05T21:56:28.604Z,30.23
2019-03-05T21:58:58.042Z,26.62
2019-03-05T22:01:27.476Z,30.82
2019-03-05T22:03:56.837Z,27.98
2019-03-05T22:06:26.286Z,31.87
2019-03-05T22:08:55.725Z,41.02
2019-03-05T22:11:25.163Z,60.20
2019-03-05T22:13:54.596Z,53.80
2019-03-05T22:16:24.036Z,36.95
2019-03-05T22:18:53.396Z,27.60
2019-03-05T22:21:22.773Z,24.47
2019-03-05T22:23:52.206Z,29.65
2019-03-05T22:26:21.921Z,27.50
2019-03-05T22:28:51.345Z,27.87
2019-03-05T22:31:20.784Z,35.20
2019-03-05T22:33:50.172Z,37.63
2019-03-05T22:36:19.589Z,32.33
2019-03-05T22:38:49.024Z,30.43
2019-03-05T22:41:18.372Z,30.82
2019-03-05T22:43:47.733Z,31.45
2019-03-05T22:46:17.105Z,37.28
2019-03-05T22:48:46.483Z,31.95
2019-03-05T22:51:15.909Z,31.27
2019-03-05T22:53:45.275Z,30.77
2019-03-05T22:56:14.701Z,30.27
2019-03-05T22:58:44.073Z,29.18
2019-03-05T23:01:13.963Z,24.65
2019-03-05T23:03:43.889Z,32.50
2019-03-05T23:06:13.813Z,28.32
2019-03-05T23:08:43.397Z,25.37
2019-03-05T23:11:12.809Z,27.65
2019-03-05T23:13:42.522Z,25.88
2019-03-05T23:16:11.932Z,26.60
2019-03-05T23:18:41.353Z,27.40
2019-03-05T23:21:10.868Z,26.57
2019-03-05T23:23:40.287Z,27.30
2019-03-05T23:26:09.909Z,33.70
2019-03-05T23:28:39.556Z,34.43
2019-03-05T23:31:11.692Z,30.05
2019-03-05T23:33:41.074Z,20.57
2019-03-05T23:36:10.609Z,25.65
2019-03-05T23:38:39.972Z,19.15
2019-03-05T23:41:09.328Z,17.23
2019-03-05T23:43:38.776Z,16.67
2019-03-05T23:46:08.145Z,17.17
2019-03-05T23:48:37.571Z,17.70
2019-03-05T23:51:06.919Z,18.65
2019-03-05T23:53:36.389Z,16.30
2019-03-05T23:56:05.757Z,15.53
2019-03-05T23:58:35.126Z,18.32
